createdAt,value
2018-05-24T00:00:28.953Z,15.33
2018-05-24T00:03:32.334Z,15.30
2018-05-24T00:06:35.740Z,15.27
2018-05-24T00:09:39.125Z,15.27
2018-05-24T00:12:42.512Z,15.28
2018-05-24T00:15:45.896Z,15.27
2018-05-24T00:18:49.332Z,15.22
2018-05-24T00:21:54.253Z,15.12
2018-05-24T00:24:57.552Z,14.99
2018-05-24T00:28:00.944Z,14.88
2018-05-24T00:31:04.282Z,14.87
2018-05-24T00:34:08.416Z,14.86
2018-05-24T00:37:11.752Z,14.79
2018-05-24T00:40:15.095Z,14.69
2018-05-24T00:43:18.446Z,14.59
2018-05-24T00:46:21.832Z,14.50
2018-05-24T00:49:25.196Z,14.40
2018-05-24T00:52:28.540Z,14.33
2018-05-24T00:55:42.749Z,14.30
2018-05-24T00:58:46.149Z,14.27
2018-05-24T01:01:49.465Z,14.25
2018-05-24T01:04:52.794Z,14.32
2018-05-24T01:07:56.171Z,14.33
2018-05-24T01:10:59.568Z,14.34
2018-05-24T01:14:02.979Z,14.39
2018-05-24T01:17:06.326Z,14.42
2018-05-24T01:20:09.726Z,14.67
2018-05-24T01:23:13.177Z,14.83
2018-05-24T01:26:17.282Z,14.78
2018-05-24T01:29:20.617Z,14.68
2018-05-24T01:32:23.925Z,14.61
2018-05-24T01:35:28.037Z,14.62
2018-05-24T01:38:31.395Z,14.74
2018-05-24T01:41:34.757Z,14.79
2018-05-24T01:44:38.177Z,14.84
2018-05-24T01:47:41.561Z,14.90
2018-05-24T01:50:44.946Z,14.93
2018-05-24T01:53:48.323Z,14.96
2018-05-24T01:56:51.661Z,15.08
2018-05-24T01:59:55.015Z,15.17
2018-05-24T02:02:58.363Z,15.14
2018-05-24T02:06:02.505Z,15.16
2018-05-24T02:09:06.616Z,15.17
2018-05-24T02:12:10.802Z,15.16
2018-05-24T02:15:14.110Z,15.02
2018-05-24T02:18:17.454Z,14.87
2018-05-24T02:21:20.781Z,14.79
2018-05-24T02:24:24.187Z,14.72
2018-05-24T02:27:27.498Z,14.61
2018-05-24T02:30:32.339Z,14.52
2018-05-24T02:33:35.725Z,14.37
2018-05-24T02:36:39.083Z,14.23
2018-05-24T02:39:42.399Z,14.11
2018-05-24T02:42:45.795Z,14.06
2018-05-24T02:45:49.197Z,14.01
2018-05-24T02:48:52.510Z,13.95
2018-05-24T02:51:56.715Z,13.91
2018-05-24T02:55:00.077Z,13.88
2018-05-24T02:58:03.475Z,13.89
2018-05-24T03:01:06.867Z,13.88
2018-05-24T03:04:10.171Z,13.85
2018-05-24T03:07:13.561Z,13.81
2018-05-24T03:10:16.893Z,13.79
2018-05-24T03:13:20.294Z,13.74
2018-05-24T03:16:23.696Z,13.71
2018-05-24T03:19:27.181Z,13.63
2018-05-24T03:22:30.639Z,13.56
2018-05-24T03:25:33.994Z,13.66
2018-05-24T03:28:37.304Z,13.80
2018-05-24T03:31:41.479Z,13.97
2018-05-24T03:34:44.974Z,14.15
2018-05-24T03:37:48.344Z,14.44
2018-05-24T03:40:51.701Z,14.74
2018-05-24T03:43:55.825Z,14.94
2018-05-24T03:46:59.146Z,15.07
2018-05-24T03:50:02.484Z,15.15
2018-05-24T03:53:05.802Z,15.36
2018-05-24T03:56:09.149Z,15.35
2018-05-24T04:03:40.558Z,15.03
2018-05-24T04:06:43.955Z,14.97
2018-05-24T04:09:47.353Z,14.95
2018-05-24T04:12:50.744Z,14.92
2018-05-24T04:15:54.159Z,15.02
2018-05-24T04:18:57.473Z,15.11
2018-05-24T04:22:00.797Z,15.19
2018-05-24T04:25:04.132Z,15.23
2018-05-24T04:28:07.534Z,15.36
2018-05-24T04:31:10.928Z,15.47
2018-05-24T04:34:14.339Z,15.59
2018-05-24T04:37:17.673Z,15.68
2018-05-24T04:40:21.834Z,15.76
2018-05-24T04:43:25.158Z,15.82
2018-05-24T04:46:29.963Z,15.89
2018-05-24T04:49:33.339Z,15.95
2018-05-24T04:52:36.759Z,16.05
2018-05-24T04:55:40.088Z,16.12
2018-05-24T04:58:44.176Z,16.23
2018-05-24T05:01:47.501Z,16.28
2018-05-24T05:04:51.604Z,16.39
2018-05-24T05:07:54.924Z,16.43
2018-05-24T05:10:58.386Z,16.48
2018-05-24T05:14:01.720Z,16.50
2018-05-24T05:17:05.830Z,16.62
2018-05-24T05:20:09.918Z,16.68
2018-05-24T05:23:13.356Z,16.74
2018-05-24T05:26:16.591Z,16.81
2018-05-24T05:29:19.888Z,16.89
2018-05-24T05:32:23.290Z,16.99
2018-05-24T05:35:26.725Z,17.07
2018-05-24T05:38:30.909Z,17.18
2018-05-24T05:41:34.221Z,17.25
2018-05-24T05:44:38.416Z,17.35
2018-05-24T05:47:41.816Z,17.46
2018-05-24T05:50:45.197Z,17.55
2018-05-24T05:53:48.547Z,17.60
2018-05-24T05:56:52.669Z,17.68
2018-05-24T05:59:56.025Z,17.75
2018-05-24T06:02:59.349Z,17.86
2018-05-24T06:06:03.429Z,17.85
2018-05-24T06:09:08.269Z,17.95
2018-05-24T06:12:11.654Z,17.98
2018-05-24T06:15:14.974Z,17.99
2018-05-24T06:18:18.444Z,18.16
2018-05-24T06:21:22.354Z,18.21
2018-05-24T06:24:26.113Z,18.23
2018-05-24T06:27:29.592Z,18.27
2018-05-24T06:30:34.125Z,18.38
2018-05-24T06:33:37.632Z,18.56
2018-05-24T06:36:41.762Z,18.65
2018-05-24T06:39:45.089Z,18.63
2018-05-24T06:42:48.706Z,18.67
2018-05-24T06:45:52.104Z,18.76
2018-05-24T06:48:55.455Z,18.84
2018-05-24T06:51:58.770Z,18.87
2018-05-24T06:55:02.113Z,18.93
2018-05-24T06:58:05.434Z,18.91
2018-05-24T07:01:09.513Z,18.82
2018-05-24T07:04:13.617Z,18.88
2018-05-24T07:07:16.974Z,18.94
2018-05-24T07:10:20.293Z,19.02
2018-05-24T07:13:23.657Z,18.93
2018-05-24T07:16:26.984Z,18.92
2018-05-24T07:19:30.328Z,18.96
2018-05-24T07:22:34.423Z,19.08
2018-05-24T07:25:38.643Z,19.18
2018-05-24T07:28:41.972Z,19.24
2018-05-24T07:31:45.326Z,19.27
2018-05-24T07:34:48.643Z,19.27
2018-05-24T07:37:52.119Z,19.20
2018-05-24T07:40:55.364Z,19.17
2018-05-24T07:43:58.830Z,19.32
2018-05-24T07:47:03.029Z,19.42
2018-05-24T07:50:06.453Z,19.42
2018-05-24T07:53:10.531Z,19.44
2018-05-24T07:56:13.823Z,19.39
2018-05-24T07:59:17.179Z,19.31
2018-05-24T08:02:20.525Z,19.33
2018-05-24T08:05:23.810Z,19.39
2018-05-24T08:08:27.149Z,19.40
2018-05-24T08:11:30.486Z,19.54
2018-05-24T08:14:33.839Z,19.66
2018-05-24T08:17:37.211Z,19.50
2018-05-24T08:20:40.610Z,19.42
2018-05-24T08:23:43.897Z,19.64
2018-05-24T08:26:47.543Z,19.73
2018-05-24T08:29:51.620Z,19.68
2018-05-24T08:32:54.994Z,19.61
2018-05-24T08:35:58.308Z,19.57
2018-05-24T08:39:01.658Z,19.53
2018-05-24T08:42:04.983Z,19.60
2018-05-24T08:45:08.336Z,19.54
2018-05-24T08:48:12.522Z,19.65
2018-05-24T08:51:15.920Z,19.78
2018-05-24T08:54:19.370Z,19.83
2018-05-24T08:57:22.704Z,20.00
2018-05-24T09:00:26.042Z,20.19
2018-05-24T09:03:29.517Z,20.28
2018-05-24T09:06:32.833Z,20.41
2018-05-24T09:09:36.146Z,20.46
2018-05-24T09:12:39.513Z,20.49
2018-05-24T09:15:42.902Z,20.47
2018-05-24T09:18:46.251Z,20.60
2018-05-24T09:21:49.683Z,20.75
2018-05-24T09:24:53.810Z,20.73
2018-05-24T09:27:57.165Z,20.81
2018-05-24T09:31:00.478Z,20.84
2018-05-24T09:34:03.818Z,20.92
2018-05-24T09:37:08.039Z,21.05
2018-05-24T09:40:12.225Z,21.08
2018-05-24T09:43:15.599Z,21.18
2018-05-24T09:46:19.023Z,21.29
2018-05-24T09:49:22.358Z,21.27
2018-05-24T09:52:26.448Z,21.23
2018-05-24T09:55:32.718Z,21.21
2018-05-24T09:58:36.085Z,21.41
2018-05-24T10:01:39.401Z,21.62
2018-05-24T10:04:42.767Z,21.68
2018-05-24T10:07:46.069Z,21.72
2018-05-24T10:10:49.415Z,21.74
2018-05-24T10:13:53.551Z,21.72
2018-05-24T10:16:56.880Z,21.69
2018-05-24T10:20:00.393Z,21.80
2018-05-24T10:23:03.777Z,22.00
2018-05-24T10:26:07.089Z,21.95
2018-05-24T10:29:10.421Z,21.90
2018-05-24T10:32:14.613Z,21.90
2018-05-24T10:35:17.996Z,21.87
2018-05-24T10:38:21.348Z,21.98
2018-05-24T10:41:24.719Z,21.85
2018-05-24T10:44:28.906Z,21.66
2018-05-24T10:47:32.304Z,21.68
2018-05-24T10:50:35.684Z,21.78
2018-05-24T10:53:38.988Z,21.74
2018-05-24T10:56:42.331Z,21.70
2018-05-24T10:59:46.480Z,21.63
2018-05-24T11:02:49.907Z,21.68
2018-05-24T11:05:53.409Z,21.80
2018-05-24T11:08:56.802Z,21.85
2018-05-24T11:12:00.199Z,21.90
2018-05-24T11:15:03.597Z,21.83
2018-05-24T11:18:06.994Z,21.84
2018-05-24T11:21:10.450Z,22.00
2018-05-24T11:24:13.789Z,22.04
2018-05-24T11:27:17.181Z,22.27
2018-05-24T11:30:20.599Z,22.24
2018-05-24T11:33:23.914Z,22.37
2018-05-24T11:36:28.014Z,22.48
2018-05-24T11:39:31.308Z,22.57
2018-05-24T11:42:35.500Z,22.58
2018-05-24T11:45:38.821Z,22.71
2018-05-24T11:48:42.150Z,22.53
2018-05-24T11:51:45.505Z,22.45
2018-05-24T11:54:48.882Z,21.99
2018-05-24T11:57:52.223Z,22.00
2018-05-24T12:00:56.390Z,21.81
2018-05-24T12:04:00.434Z,21.71
2018-05-24T12:07:03.861Z,21.51
2018-05-24T12:10:07.135Z,21.65
2018-05-24T12:13:10.522Z,21.69
2018-05-24T12:16:13.868Z,21.74
2018-05-24T12:19:17.233Z,21.91
2018-05-24T12:22:21.404Z,22.00
2018-05-24T12:25:24.803Z,22.03
2018-05-24T12:28:28.234Z,21.85
2018-05-24T12:31:31.583Z,21.98
2018-05-24T12:34:34.915Z,22.08
2018-05-24T12:37:38.295Z,22.28
2018-05-24T12:40:41.633Z,22.32
2018-05-24T12:43:45.698Z,22.35
2018-05-24T12:46:49.037Z,22.36
2018-05-24T12:49:53.120Z,22.15
2018-05-24T12:52:56.471Z,22.23
2018-05-24T12:55:59.915Z,22.25
2018-05-24T12:59:03.234Z,22.22
2018-05-24T13:02:06.570Z,22.24
2018-05-24T13:05:09.892Z,22.45
2018-05-24T13:08:13.318Z,22.68
2018-05-24T13:11:16.751Z,22.75
2018-05-24T13:14:20.059Z,22.74
2018-05-24T13:17:23.365Z,22.62
2018-05-24T13:20:26.731Z,22.67
2018-05-24T13:23:30.102Z,22.68
2018-05-24T13:26:33.509Z,22.65
2018-05-24T13:29:37.699Z,22.62
2018-05-24T13:32:41.035Z,22.58
2018-05-24T13:35:45.121Z,22.49
2018-05-24T13:38:48.478Z,22.42
2018-05-24T13:41:51.898Z,22.41
2018-05-24T13:44:55.307Z,22.34
2018-05-24T13:47:58.624Z,22.40
2018-05-24T13:51:01.973Z,22.53
2018-05-24T13:54:05.304Z,22.35
2018-05-24T13:57:08.680Z,22.39
2018-05-24T14:00:12.088Z,22.40
2018-05-24T14:03:15.490Z,22.46
2018-05-24T14:06:18.806Z,22.23
2018-05-24T14:09:23.038Z,22.16
2018-05-24T14:12:26.395Z,22.45
2018-05-24T14:15:29.744Z,22.47
2018-05-24T14:18:33.085Z,22.35
2018-05-24T14:21:36.445Z,22.36
2018-05-24T14:24:39.769Z,22.43
2018-05-24T14:27:43.165Z,22.44
2018-05-24T14:30:46.498Z,22.38
2018-05-24T14:33:50.692Z,22.42
2018-05-24T14:36:53.996Z,22.37
2018-05-24T14:39:57.331Z,22.23
2018-05-24T14:43:00.675Z,22.13
2018-05-24T14:46:04.082Z,22.19
2018-05-24T14:49:08.186Z,22.10
2018-05-24T14:52:11.524Z,21.98
2018-05-24T14:55:15.695Z,22.01
2018-05-24T14:58:19.024Z,22.15
2018-05-24T15:01:23.225Z,22.16
2018-05-24T15:04:26.568Z,22.27
2018-05-24T15:07:30.013Z,22.40
2018-05-24T15:10:33.317Z,22.70
2018-05-24T15:13:50.220Z,23.07
2018-05-24T15:16:53.618Z,23.37
2018-05-24T15:19:56.968Z,23.80
2018-05-24T15:23:00.405Z,24.00
2018-05-24T15:26:03.762Z,24.16
2018-05-24T15:29:07.099Z,24.26
2018-05-24T15:32:10.436Z,24.61
2018-05-24T15:35:14.526Z,24.76
2018-05-24T15:38:17.862Z,24.65
2018-05-24T15:41:21.322Z,24.82
2018-05-24T15:44:24.641Z,24.95
2018-05-24T15:47:28.814Z,24.75
2018-05-24T15:50:32.142Z,24.92
2018-05-24T15:53:36.261Z,24.80
2018-05-24T15:56:40.348Z,24.55
2018-05-24T15:59:43.749Z,24.53
2018-05-24T16:02:47.137Z,24.62
2018-05-24T16:05:50.474Z,24.50
2018-05-24T16:08:54.600Z,24.74
2018-05-24T16:11:57.917Z,24.69
2018-05-24T16:15:01.257Z,24.69
2018-05-24T16:18:04.586Z,24.36
2018-05-24T16:21:07.940Z,24.37
2018-05-24T16:24:11.342Z,24.29
2018-05-24T16:27:14.704Z,24.01
2018-05-24T16:30:18.077Z,24.03
2018-05-24T16:33:21.463Z,23.96
2018-05-24T16:36:25.656Z,24.21
2018-05-24T16:39:28.969Z,24.74
2018-05-24T16:42:33.145Z,24.64
2018-05-24T16:45:36.570Z,24.39
2018-05-24T16:48:39.970Z,24.53
2018-05-24T16:51:44.065Z,24.63
2018-05-24T16:54:47.388Z,24.35
2018-05-24T16:57:51.586Z,24.45
2018-05-24T17:00:54.969Z,24.40
2018-05-24T17:03:58.362Z,24.39
2018-05-24T17:07:01.686Z,24.67
2018-05-24T17:10:05.012Z,24.53
2018-05-24T17:13:08.468Z,23.80
2018-05-24T17:16:11.877Z,23.02
2018-05-24T17:19:15.245Z,22.17
2018-05-24T17:22:18.655Z,21.66
2018-05-24T17:25:21.973Z,21.34
2018-05-24T17:28:26.214Z,21.03
2018-05-24T17:31:29.579Z,20.81
2018-05-24T17:34:33.001Z,20.66
2018-05-24T17:37:37.173Z,20.55
2018-05-24T17:40:40.573Z,20.46
2018-05-24T17:43:44.797Z,20.40
2018-05-24T17:46:49.733Z,20.40
2018-05-24T17:49:53.106Z,20.34
2018-05-24T17:52:56.447Z,20.26
2018-05-24T17:56:00.637Z,20.19
2018-05-24T17:59:03.972Z,20.20
2018-05-24T18:02:07.313Z,20.21
2018-05-24T18:05:10.773Z,20.14
2018-05-24T18:08:14.121Z,20.06
2018-05-24T18:11:17.476Z,19.94
2018-05-24T18:14:20.821Z,19.90
2018-05-24T18:17:24.154Z,19.84
2018-05-24T18:20:27.674Z,19.84
2018-05-24T18:23:31.014Z,19.73
2018-05-24T18:26:34.360Z,19.64
2018-05-24T18:29:37.654Z,19.62
2018-05-24T18:32:41.019Z,19.65
2018-05-24T18:35:45.112Z,19.66
2018-05-24T18:38:48.474Z,19.65
2018-05-24T18:41:51.909Z,19.62
2018-05-24T18:44:55.298Z,19.55
2018-05-24T18:47:58.634Z,19.46
2018-05-24T18:51:02.708Z,19.35
2018-05-24T18:54:06.046Z,19.31
2018-05-24T18:57:10.217Z,19.23
2018-05-24T19:00:13.497Z,19.14
2018-05-24T19:03:16.945Z,19.04
2018-05-24T19:06:20.303Z,18.97
2018-05-24T19:09:23.642Z,18.90
2018-05-24T19:12:27.028Z,18.84
2018-05-24T19:15:31.873Z,18.73
2018-05-24T19:18:35.203Z,18.69
2018-05-24T19:21:38.647Z,18.64
2018-05-24T19:24:41.990Z,18.55
2018-05-24T19:27:46.174Z,18.55
2018-05-24T19:30:49.561Z,18.45
2018-05-24T19:33:52.965Z,18.45
2018-05-24T19:36:56.302Z,18.39
2018-05-24T19:40:00.412Z,18.30
2018-05-24T19:43:04.517Z,18.23
2018-05-24T19:46:07.841Z,18.17
2018-05-24T19:49:11.155Z,18.14
2018-05-24T19:52:14.512Z,18.08
2018-05-24T19:55:17.882Z,18.01
2018-05-24T19:58:21.210Z,17.93
2018-05-24T20:01:24.553Z,17.94
2018-05-24T20:04:27.892Z,17.90
2018-05-24T20:07:32.546Z,17.86
2018-05-24T20:10:36.842Z,17.83
2018-05-24T20:13:40.189Z,17.77
2018-05-24T20:16:43.605Z,17.70
2018-05-24T20:19:47.037Z,17.68
2018-05-24T20:22:50.534Z,17.68
2018-05-24T20:25:54.854Z,17.62
2018-05-24T20:28:58.261Z,17.56
2018-05-24T20:32:01.659Z,17.50
2018-05-24T20:35:04.971Z,17.46
2018-05-24T20:38:08.550Z,17.42
2018-05-24T20:41:11.945Z,17.36
2018-05-24T20:44:15.319Z,17.32
2018-05-24T20:47:19.044Z,17.24
2018-05-24T20:50:22.369Z,17.21
2018-05-24T20:53:25.706Z,17.14
2018-05-24T20:56:29.240Z,17.09
2018-05-24T20:59:32.763Z,17.10
2018-05-24T21:02:36.259Z,17.09
2018-05-24T21:05:39.687Z,17.03
2018-05-24T21:08:43.103Z,16.91
2018-05-24T21:11:46.540Z,16.86
2018-05-24T21:14:49.886Z,16.79
2018-05-24T21:17:53.222Z,16.85
2018-05-24T21:20:56.551Z,16.83
2018-05-24T21:23:59.900Z,16.77
2018-05-24T21:27:03.239Z,16.77
2018-05-24T21:30:06.626Z,16.67
2018-05-24T21:33:10.011Z,16.64
2018-05-24T21:36:13.431Z,16.67
2018-05-24T21:39:16.806Z,16.70
2018-05-24T21:42:20.141Z,16.68
2018-05-24T21:45:24.225Z,16.71
2018-05-24T21:48:27.617Z,16.68
2018-05-24T21:51:30.934Z,16.70
2018-05-24T21:54:34.272Z,16.67
2018-05-24T21:57:37.619Z,16.65
2018-05-24T22:00:46.409Z,16.65
2018-05-24T22:03:50.538Z,16.67
2018-05-24T22:06:53.950Z,16.67
2018-05-24T22:09:57.337Z,16.61
2018-05-24T22:13:00.738Z,16.60
2018-05-24T22:16:04.142Z,16.60
2018-05-24T22:19:07.530Z,16.58
2018-05-24T22:22:10.865Z,16.56
2018-05-24T22:25:14.951Z,16.52
2018-05-24T22:28:18.288Z,16.47
2018-05-24T22:31:21.605Z,16.45
2018-05-24T22:34:25.042Z,16.44
2018-05-24T22:37:28.395Z,16.44
2018-05-24T22:40:31.842Z,16.33
2018-05-24T22:43:35.223Z,16.30
2018-05-24T22:46:38.590Z,16.28
2018-05-24T22:49:41.948Z,16.29
2018-05-24T22:52:46.015Z,16.25
2018-05-24T22:55:49.352Z,16.22
2018-05-24T22:58:53.541Z,16.19
2018-05-24T23:01:56.933Z,16.11
2018-05-24T23:05:00.247Z,16.09
2018-05-24T23:08:04.959Z,16.10
2018-05-24T23:11:08.261Z,16.14
2018-05-24T23:14:11.657Z,16.14
2018-05-24T23:17:14.990Z,16.15
2018-05-24T23:20:19.065Z,16.13
2018-05-24T23:23:22.422Z,16.09
2018-05-24T23:26:25.750Z,16.11
2018-05-24T23:29:29.172Z,16.09
2018-05-24T23:32:32.505Z,16.05
2018-05-24T23:35:35.802Z,16.04
2018-05-24T23:38:39.154Z,16.00
2018-05-24T23:41:42.474Z,15.95
2018-05-24T23:44:46.572Z,15.92
2018-05-24T23:47:49.936Z,15.88
2018-05-24T23:50:53.340Z,15.85
2018-05-24T23:53:56.660Z,15.87
2018-05-24T23:56:59.978Z,15.84
